createdAt,value
2016-12-17T00:00:01.396Z,0
2016-12-17T00:01:01.075Z,0
2016-12-17T00:02:01.051Z,0
2016-12-17T00:03:01.036Z,0
2016-12-17T00:04:01.016Z,0
2016-12-17T00:05:01.000Z,0
2016-12-17T00:06:00.984Z,0
2016-12-17T00:07:00.995Z,0
2016-12-17T00:08:00.951Z,0
2016-12-17T00:09:00.934Z,0
2016-12-17T00:10:00.918Z,0
2016-12-17T00:11:00.897Z,0
2016-12-17T00:12:00.882Z,0
2016-12-17T00:13:00.867Z,0
2016-12-17T00:14:01.157Z,0
2016-12-17T00:15:00.834Z,0
2016-12-17T00:16:00.817Z,0
2016-12-17T00:17:00.795Z,0
2016-12-17T00:18:00.787Z,0
2016-12-17T00:19:01.079Z,0
2016-12-17T00:20:00.751Z,0
2016-12-17T00:21:00.732Z,0
2016-12-17T00:22:00.717Z,0
2016-12-17T00:23:00.697Z,0
2016-12-17T00:24:00.684Z,0
2016-12-17T00:25:00.969Z,0
2016-12-17T00:26:00.650Z,0
2016-12-17T00:27:00.631Z,0
2016-12-17T00:28:00.646Z,0
2016-12-17T00:29:00.598Z,0
2016-12-17T00:30:00.591Z,0
2016-12-17T00:31:00.573Z,0
2016-12-17T00:32:00.545Z,0
2016-12-17T00:33:00.549Z,0
2016-12-17T00:34:00.512Z,0
2016-12-17T00:35:00.494Z,0
2016-12-17T00:36:00.482Z,0
2016-12-17T00:37:00.464Z,0
2016-12-17T00:38:00.446Z,0
2016-12-17T00:39:00.431Z,0
2016-12-17T00:40:00.415Z,0
2016-12-17T00:41:00.396Z,0
2016-12-17T00:42:00.379Z,0
2016-12-17T00:43:00.364Z,0
2016-12-17T00:44:00.343Z,0
2016-12-17T00:45:00.327Z,0
2016-12-17T00:46:00.317Z,0
2016-12-17T00:47:00.300Z,0
2016-12-17T00:48:00.313Z,0
2016-12-17T00:49:00.259Z,0
2016-12-17T00:50:00.270Z,0
2016-12-17T00:51:00.532Z,0
2016-12-17T00:52:00.211Z,0
2016-12-17T00:53:00.197Z,0
2016-12-17T00:54:00.179Z,0
2016-12-17T00:55:00.160Z,0
2016-12-17T00:56:00.446Z,0
2016-12-17T00:57:00.128Z,0
2016-12-17T00:58:00.113Z,0
2016-12-17T00:59:00.098Z,0
2016-12-17T01:00:00.079Z,0
2016-12-17T01:01:00.088Z,0
2016-12-17T01:02:00.043Z,0
2016-12-17T01:03:00.023Z,0
2016-12-17T01:04:00.009Z,0
2016-12-17T01:05:00.304Z,0
2016-12-17T01:05:59.980Z,0
2016-12-17T01:06:59.957Z,0
2016-12-17T01:07:59.939Z,0
2016-12-17T01:08:59.927Z,0
2016-12-17T01:09:59.907Z,0
2016-12-17T01:10:59.889Z,0
2016-12-17T01:11:59.876Z,0
2016-12-17T01:12:59.856Z,0
2016-12-17T01:14:00.142Z,0
2016-12-17T01:14:59.822Z,0
2016-12-17T01:15:59.813Z,0
2016-12-17T01:16:59.791Z,0
2016-12-17T01:17:59.773Z,0
2016-12-17T01:18:59.754Z,0
2016-12-17T01:19:59.743Z,0
2016-12-17T01:20:59.727Z,0
2016-12-17T01:21:59.704Z,0
2016-12-17T01:22:59.688Z,0
2016-12-17T01:23:59.678Z,0
2016-12-17T01:24:59.658Z,0
2016-12-17T01:25:59.644Z,0
2016-12-17T01:26:59.617Z,0
2016-12-17T01:27:59.608Z,0
2016-12-17T01:28:59.585Z,0
2016-12-17T01:29:59.875Z,0
2016-12-17T01:30:59.550Z,0
2016-12-17T01:31:59.540Z,0
2016-12-17T01:32:59.515Z,0
2016-12-17T01:33:59.808Z,0
2016-12-17T01:34:59.488Z,0
2016-12-17T01:35:59.469Z,0
2016-12-17T01:36:59.451Z,0
2016-12-17T01:37:59.433Z,0
2016-12-17T01:38:59.417Z,0
2016-12-17T01:39:59.401Z,0
2016-12-17T01:40:59.689Z,0
2016-12-17T01:41:59.369Z,0
2016-12-17T01:42:59.352Z,0
2016-12-17T01:43:59.331Z,0
2016-12-17T01:44:59.316Z,0
2016-12-17T01:45:59.903Z,0
2016-12-17T01:46:59.315Z,0
2016-12-17T01:47:59.263Z,0
2016-12-17T01:48:59.247Z,0
2016-12-17T01:49:59.234Z,0
2016-12-17T01:50:59.215Z,0
2016-12-17T01:51:59.198Z,0
2016-12-17T01:52:59.212Z,0
2016-12-17T01:53:59.165Z,0
2016-12-17T01:54:59.152Z,0
2016-12-17T01:55:59.138Z,0
2016-12-17T01:56:59.113Z,0
2016-12-17T01:57:59.096Z,0
2016-12-17T01:58:59.077Z,0
2016-12-17T01:59:59.062Z,0
2016-12-17T02:00:59.047Z,0
2016-12-17T02:01:59.024Z,0
2016-12-17T02:02:59.017Z,0
2016-12-17T02:03:59.299Z,0
2016-12-17T02:04:58.974Z,0
2016-12-17T02:05:58.962Z,0
2016-12-17T02:06:58.943Z,0
2016-12-17T02:07:58.928Z,0
2016-12-17T02:08:58.906Z,0
2016-12-17T02:09:58.888Z,0
2016-12-17T02:10:58.879Z,0
2016-12-17T02:11:58.854Z,0
2016-12-17T02:12:58.845Z,0
2016-12-17T02:13:59.125Z,0
2016-12-17T02:14:58.819Z,0
2016-12-17T02:15:58.793Z,0
2016-12-17T02:16:58.772Z,0
2016-12-17T02:17:58.759Z,0
2016-12-17T02:18:58.738Z,0
2016-12-17T02:19:58.725Z,0
2016-12-17T02:20:58.708Z,0
2016-12-17T02:21:58.689Z,0
2016-12-17T02:22:58.670Z,0
2016-12-17T02:23:58.652Z,0
2016-12-17T02:24:58.635Z,0
2016-12-17T02:25:58.924Z,0
2016-12-17T02:26:58.613Z,0
2016-12-17T02:27:58.621Z,0
2016-12-17T02:28:58.567Z,0
2016-12-17T02:29:58.558Z,0
2016-12-17T02:30:58.837Z,0
2016-12-17T02:31:58.521Z,0
2016-12-17T02:32:58.536Z,0
2016-12-17T02:33:58.484Z,0
2016-12-17T02:34:58.473Z,0
2016-12-17T02:35:58.452Z,0
2016-12-17T02:36:58.435Z,0
2016-12-17T02:37:58.419Z,0
2016-12-17T02:38:58.397Z,0
2016-12-17T02:39:58.413Z,0
2016-12-17T02:40:58.366Z,0
2016-12-17T02:41:58.353Z,0
2016-12-17T02:42:58.647Z,0
2016-12-17T02:43:58.320Z,0
2016-12-17T02:44:58.294Z,0
2016-12-17T02:45:58.276Z,0
2016-12-17T02:46:58.260Z,0
2016-12-17T02:47:58.245Z,0
2016-12-17T02:48:58.561Z,0
2016-12-17T02:49:58.209Z,0
2016-12-17T02:50:58.194Z,0
2016-12-17T02:51:58.178Z,0
2016-12-17T02:52:58.165Z,0
2016-12-17T02:53:58.143Z,0
2016-12-17T02:54:58.426Z,0
2016-12-17T02:55:58.107Z,0
2016-12-17T02:56:58.089Z,0
2016-12-17T02:57:58.380Z,0
2016-12-17T02:58:58.055Z,0
2016-12-17T02:59:58.037Z,0
2016-12-17T03:00:58.021Z,0
2016-12-17T03:01:58.006Z,0
2016-12-17T03:02:57.991Z,0
2016-12-17T03:03:58.305Z,0
2016-12-17T03:04:58.618Z,0
2016-12-17T03:05:57.936Z,0
2016-12-17T03:06:58.223Z,0
2016-12-17T03:07:57.900Z,0
2016-12-17T03:08:57.919Z,0
2016-12-17T03:09:57.866Z,0
2016-12-17T03:10:58.157Z,0
2016-12-17T03:11:57.830Z,0
2016-12-17T03:12:57.818Z,0
2016-12-17T03:13:57.805Z,0
2016-12-17T03:14:57.783Z,0
2016-12-17T03:15:57.765Z,0
2016-12-17T03:16:57.746Z,0
2016-12-17T03:17:57.731Z,0
2016-12-17T03:18:57.748Z,0
2016-12-17T03:19:57.695Z,0
2016-12-17T03:20:57.677Z,0
2016-12-17T03:21:57.666Z,0
2016-12-17T03:22:57.644Z,0
2016-12-17T03:23:57.930Z,0
2016-12-17T03:24:57.613Z,0
2016-12-17T03:25:57.897Z,0
2016-12-17T03:26:57.577Z,0
2016-12-17T03:27:57.561Z,0
2016-12-17T03:28:57.543Z,0
2016-12-17T03:29:57.523Z,0
2016-12-17T03:30:57.509Z,0
2016-12-17T03:31:57.496Z,0
2016-12-17T03:32:57.504Z,0
2016-12-17T03:33:57.464Z,0
2016-12-17T03:34:57.439Z,0
2016-12-17T03:35:57.425Z,0
2016-12-17T03:36:57.408Z,0
2016-12-17T03:37:57.387Z,0
2016-12-17T03:38:57.372Z,0
2016-12-17T03:39:57.349Z,0
2016-12-17T03:40:57.335Z,0
2016-12-17T03:41:57.925Z,0
2016-12-17T03:42:57.607Z,0
2016-12-17T03:43:57.893Z,0
2016-12-17T03:44:57.268Z,0
2016-12-17T03:45:57.253Z,0
2016-12-17T03:46:57.233Z,0
2016-12-17T03:47:57.219Z,0
2016-12-17T03:48:57.207Z,0
2016-12-17T03:49:57.182Z,0
2016-12-17T03:50:57.168Z,0
2016-12-17T03:51:57.449Z,0
2016-12-17T03:52:57.135Z,0
2016-12-17T03:53:57.113Z,0
2016-12-17T03:54:57.127Z,0
2016-12-17T03:55:57.084Z,0
2016-12-17T03:56:57.065Z,0
2016-12-17T03:57:57.049Z,0
2016-12-17T03:58:57.028Z,0
2016-12-17T03:59:57.017Z,0
2016-12-17T04:00:56.995Z,0
2016-12-17T04:01:56.978Z,0
2016-12-17T04:02:56.957Z,0
2016-12-17T04:03:56.942Z,0
2016-12-17T04:04:56.924Z,0
2016-12-17T04:05:56.906Z,0
2016-12-17T04:06:56.888Z,0
2016-12-17T04:07:57.206Z,0
2016-12-17T04:08:57.461Z,0
2016-12-17T04:09:57.140Z,0
2016-12-17T04:10:57.124Z,0
2016-12-17T04:11:56.805Z,0
2016-12-17T04:12:56.783Z,0
2016-12-17T04:13:56.768Z,0
2016-12-17T04:14:56.754Z,0
2016-12-17T04:15:57.061Z,0
2016-12-17T04:16:56.719Z,0
2016-12-17T04:17:56.700Z,0
2016-12-17T04:18:56.682Z,0
2016-12-17T04:19:56.668Z,0
2016-12-17T04:20:56.949Z,0
2016-12-17T04:21:56.630Z,0
2016-12-17T04:22:56.617Z,0
2016-12-17T04:23:56.597Z,0
2016-12-17T04:24:56.607Z,0
2016-12-17T04:25:56.570Z,0
2016-12-17T04:26:56.541Z,0
2016-12-17T04:27:56.531Z,0
2016-12-17T04:28:56.515Z,0
2016-12-17T04:29:57.109Z,0
2016-12-17T04:30:56.474Z,0
2016-12-17T04:31:56.460Z,0
2016-12-17T04:32:56.443Z,0
2016-12-17T04:33:56.433Z,0
2016-12-17T04:34:56.411Z,0
2016-12-17T04:35:56.395Z,0
2016-12-17T04:36:56.380Z,0
2016-12-17T04:37:56.662Z,0
2016-12-17T04:38:56.347Z,0
2016-12-17T04:39:56.632Z,0
2016-12-17T04:40:56.319Z,0
2016-12-17T04:41:56.295Z,0
2016-12-17T04:42:56.275Z,0
2016-12-17T04:43:56.265Z,0
2016-12-17T04:44:56.554Z,0
2016-12-17T04:45:56.242Z,0
2016-12-17T04:46:56.222Z,0
2016-12-17T04:47:56.497Z,0
2016-12-17T04:48:56.484Z,0
2016-12-17T04:49:56.165Z,0
2016-12-17T04:50:56.454Z,0
2016-12-17T04:51:56.166Z,0
2016-12-17T04:52:56.115Z,0
2016-12-17T04:53:56.108Z,0
2016-12-17T04:54:56.085Z,0
2016-12-17T04:55:56.076Z,0
2016-12-17T04:56:56.357Z,0
2016-12-17T04:57:56.038Z,0
2016-12-17T04:58:56.026Z,0
2016-12-17T04:59:56.005Z,0
2016-12-17T05:00:55.990Z,0
2016-12-17T05:01:55.973Z,0
2016-12-17T05:02:55.963Z,0
2016-12-17T05:03:55.947Z,0
2016-12-17T05:04:55.931Z,0
2016-12-17T05:05:55.914Z,0
2016-12-17T05:06:55.896Z,0
2016-12-17T05:07:56.185Z,0
2016-12-17T05:08:55.865Z,0
2016-12-17T05:09:55.848Z,0
2016-12-17T05:10:55.863Z,0
2016-12-17T05:11:55.818Z,0
2016-12-17T05:12:55.804Z,0
2016-12-17T05:13:55.792Z,0
2016-12-17T05:14:55.769Z,0
2016-12-17T05:15:55.758Z,0
2016-12-17T05:16:56.046Z,0
2016-12-17T05:17:55.728Z,0
2016-12-17T05:18:55.713Z,0
2016-12-17T05:19:55.720Z,0
2016-12-17T05:20:55.987Z,0
2016-12-17T05:21:55.666Z,0
2016-12-17T05:22:55.656Z,0
2016-12-17T05:23:55.639Z,0
2016-12-17T05:24:55.652Z,0
2016-12-17T05:25:55.613Z,0
2016-12-17T05:26:55.897Z,0
2016-12-17T05:27:55.578Z,0
2016-12-17T05:28:55.563Z,0
2016-12-17T05:29:55.546Z,0
2016-12-17T05:30:55.557Z,0
2016-12-17T05:31:55.516Z,0
2016-12-17T05:32:55.504Z,0
2016-12-17T05:33:55.790Z,0
2016-12-17T05:34:55.475Z,0
2016-12-17T05:35:55.459Z,0
2016-12-17T05:36:55.440Z,0
2016-12-17T05:37:55.431Z,0
2016-12-17T05:38:55.417Z,0
2016-12-17T05:39:55.397Z,0
2016-12-17T05:40:55.381Z,0
2016-12-17T05:41:55.365Z,0
2016-12-17T05:42:55.358Z,0
2016-12-17T05:43:55.336Z,0
2016-12-17T05:44:55.322Z,0
2016-12-17T05:45:55.316Z,0
2016-12-17T05:46:55.296Z,0
2016-12-17T05:47:55.588Z,0
2016-12-17T05:48:55.269Z,0
2016-12-17T05:49:55.249Z,0
2016-12-17T05:50:55.232Z,0
2016-12-17T05:51:55.219Z,0
2016-12-17T05:52:55.510Z,0
2016-12-17T05:53:55.192Z,0
2016-12-17T05:54:55.174Z,0
2016-12-17T05:55:55.157Z,0
2016-12-17T05:56:55.483Z,0
2016-12-17T05:57:55.131Z,0
2016-12-17T05:58:55.118Z,0
2016-12-17T05:59:55.107Z,0
2016-12-17T06:00:55.391Z,0
2016-12-17T06:01:55.072Z,0
2016-12-17T06:02:55.056Z,0
2016-12-17T06:03:55.041Z,0
2016-12-17T06:04:55.025Z,0
2016-12-17T06:05:55.012Z,0
2016-12-17T06:06:55.000Z,0
2016-12-17T06:07:54.984Z,0
2016-12-17T06:08:54.970Z,0
2016-12-17T06:09:55.276Z,0
2016-12-17T06:10:54.938Z,0
2016-12-17T06:11:54.926Z,0
2016-12-17T06:12:54.912Z,0
2016-12-17T06:13:54.906Z,0
2016-12-17T06:14:54.883Z,0
2016-12-17T06:15:54.870Z,0
2016-12-17T06:16:54.852Z,0
2016-12-17T06:17:55.457Z,0
2016-12-17T06:18:55.130Z,0
2016-12-17T06:19:54.810Z,0
2016-12-17T06:20:54.795Z,0
2016-12-17T06:21:54.778Z,0
2016-12-17T06:22:54.787Z,0
2016-12-17T06:23:54.751Z,0
2016-12-17T06:24:55.039Z,0
2016-12-17T06:25:54.721Z,0
2016-12-17T06:26:54.708Z,0
2016-12-17T06:27:54.694Z,0
2016-12-17T06:28:54.679Z,0
2016-12-17T06:29:54.668Z,0
2016-12-17T06:30:54.646Z,0
2016-12-17T06:31:54.631Z,0
2016-12-17T06:32:54.622Z,0
2016-12-17T06:33:54.602Z,0
2016-12-17T06:34:54.594Z,0
2016-12-17T06:35:54.573Z,0
2016-12-17T06:36:54.563Z,0
2016-12-17T06:37:54.548Z,0
2016-12-17T06:38:54.830Z,0
2016-12-17T06:39:54.554Z,0
2016-12-17T06:40:54.499Z,0
2016-12-17T06:41:54.487Z,0
2016-12-17T06:42:54.778Z,0
2016-12-17T06:43:54.460Z,0
2016-12-17T06:44:55.084Z,0
2016-12-17T06:45:54.432Z,0
2016-12-17T06:46:54.416Z,0
2016-12-17T06:47:54.703Z,0
2016-12-17T06:48:54.990Z,0
2016-12-17T06:49:54.369Z,0
2016-12-17T06:50:54.353Z,0
2016-12-17T06:51:54.346Z,0
2016-12-17T06:52:54.628Z,0
2016-12-17T06:53:54.309Z,0
2016-12-17T06:54:54.304Z,0
2016-12-17T06:55:54.284Z,0
2016-12-17T06:56:54.268Z,0
2016-12-17T06:57:54.265Z,0
2016-12-17T06:58:54.242Z,0
2016-12-17T06:59:54.231Z,0
2016-12-17T07:00:54.215Z,0
2016-12-17T07:01:54.194Z,0
2016-12-17T07:02:54.187Z,0
2016-12-17T07:03:54.468Z,0
2016-12-17T07:04:54.456Z,0
2016-12-17T07:05:54.147Z,0
2016-12-17T07:06:54.127Z,0
2016-12-17T07:07:54.109Z,0
2016-12-17T07:08:54.094Z,0
2016-12-17T07:09:54.098Z,0
2016-12-17T07:10:54.070Z,0
2016-12-17T07:11:54.078Z,0
2016-12-17T07:12:54.042Z,5
2016-12-17T07:13:54.326Z,5
2016-12-17T07:14:54.010Z,5
2016-12-17T07:15:53.998Z,5
2016-12-17T07:16:53.982Z,5
2016-12-17T07:17:53.965Z,5
2016-12-17T07:18:54.252Z,5
2016-12-17T07:19:53.940Z,5
2016-12-17T07:20:53.920Z,5
2016-12-17T07:21:53.905Z,5
2016-12-17T07:22:53.892Z,5
2016-12-17T07:23:53.883Z,10
2016-12-17T07:24:53.864Z,10
2016-12-17T07:25:53.853Z,10
2016-12-17T07:26:53.840Z,10
2016-12-17T07:27:53.822Z,10
2016-12-17T07:28:53.807Z,10
2016-12-17T07:29:53.795Z,10
2016-12-17T07:30:53.778Z,10
2016-12-17T07:31:53.766Z,10
2016-12-17T07:32:53.752Z,10
2016-12-17T07:33:53.736Z,10
2016-12-17T07:34:54.055Z,10
2016-12-17T07:35:53.708Z,15
2016-12-17T07:36:53.696Z,15
2016-12-17T07:37:53.682Z,15
2016-12-17T07:38:53.665Z,15
2016-12-17T07:39:53.652Z,15
2016-12-17T07:40:53.641Z,15
2016-12-17T07:41:53.625Z,20
2016-12-17T07:42:53.616Z,20
2016-12-17T07:43:53.627Z,20
2016-12-17T07:44:53.587Z,20
2016-12-17T07:45:53.565Z,20
2016-12-17T07:46:53.550Z,20
2016-12-17T07:47:53.540Z,25
2016-12-17T07:48:53.520Z,20
2016-12-17T07:49:53.510Z,25
2016-12-17T07:50:53.494Z,25
2016-12-17T07:51:53.487Z,25
2016-12-17T07:52:53.472Z,25
2016-12-17T07:53:53.457Z,25
2016-12-17T07:54:53.439Z,30
2016-12-17T07:55:53.426Z,30
2016-12-17T07:56:53.720Z,30
2016-12-17T07:57:53.395Z,30
2016-12-17T07:58:53.691Z,30
2016-12-17T07:59:53.373Z,35
2016-12-17T08:00:53.354Z,30
2016-12-17T08:01:53.338Z,35
2016-12-17T08:02:53.328Z,35
2016-12-17T08:03:53.318Z,35
2016-12-17T08:04:53.298Z,35
2016-12-17T08:05:53.288Z,35
2016-12-17T08:06:53.273Z,35
2016-12-17T08:07:53.261Z,35
2016-12-17T08:08:53.250Z,40
2016-12-17T08:09:53.239Z,40
2016-12-17T08:10:53.217Z,40
2016-12-17T08:11:53.206Z,40
2016-12-17T08:12:53.495Z,40
2016-12-17T08:13:53.178Z,45
2016-12-17T08:14:53.162Z,40
2016-12-17T08:15:53.153Z,45
2016-12-17T08:16:53.136Z,45
2016-12-17T08:17:53.125Z,45
2016-12-17T08:18:53.106Z,40
2016-12-17T08:19:53.092Z,40
2016-12-17T08:20:53.084Z,40
2016-12-17T08:21:53.065Z,40
2016-12-17T08:22:53.360Z,45
2016-12-17T08:23:53.041Z,40
2016-12-17T08:24:53.025Z,45
2016-12-17T08:25:53.046Z,45
2016-12-17T08:26:52.999Z,45
2016-12-17T08:27:52.983Z,45
2016-12-17T08:28:52.972Z,45
2016-12-17T08:29:52.955Z,45
2016-12-17T08:30:52.944Z,50
2016-12-17T08:31:52.932Z,45
2016-12-17T08:32:52.927Z,50
2016-12-17T08:33:52.910Z,50
2016-12-17T08:34:52.890Z,55
2016-12-17T08:35:53.181Z,50
2016-12-17T08:36:52.859Z,50
2016-12-17T08:37:52.847Z,55
2016-12-17T08:38:52.839Z,55
2016-12-17T08:39:52.824Z,55
2016-12-17T08:40:52.808Z,60
2016-12-17T08:41:52.804Z,60
2016-12-17T08:42:53.089Z,60
2016-12-17T08:43:52.775Z,60
2016-12-17T08:44:52.757Z,65
2016-12-17T08:45:52.745Z,65
2016-12-17T08:46:52.727Z,60
2016-12-17T08:47:52.713Z,60
2016-12-17T08:48:53.002Z,65
2016-12-17T08:49:52.719Z,65
2016-12-17T08:50:52.673Z,65
2016-12-17T08:51:52.665Z,65
2016-12-17T08:52:52.647Z,65
2016-12-17T08:53:52.633Z,65
2016-12-17T08:54:52.620Z,70
2016-12-17T08:55:52.613Z,70
2016-12-17T08:56:52.595Z,65
2016-12-17T08:57:52.579Z,65
2016-12-17T08:58:52.568Z,70
2016-12-17T08:59:52.553Z,75
2016-12-17T09:00:52.541Z,70
2016-12-17T09:01:52.528Z,70
2016-12-17T09:02:52.511Z,70
2016-12-17T09:03:52.499Z,70
2016-12-17T09:04:52.498Z,70
2016-12-17T09:05:52.472Z,70
2016-12-17T09:06:52.464Z,70
2016-12-17T09:07:52.448Z,75
2016-12-17T09:08:52.431Z,75
2016-12-17T09:09:52.420Z,75
2016-12-17T09:10:52.410Z,75
2016-12-17T09:11:52.395Z,75
2016-12-17T09:12:52.380Z,70
2016-12-17T09:13:52.370Z,70
2016-12-17T09:14:52.357Z,75
2016-12-17T09:15:52.341Z,75
2016-12-17T09:16:52.332Z,75
2016-12-17T09:17:52.313Z,75
2016-12-17T09:18:52.301Z,75
2016-12-17T09:19:52.283Z,80
2016-12-17T09:20:52.273Z,80
2016-12-17T09:21:52.262Z,75
2016-12-17T09:22:52.248Z,75
2016-12-17T09:23:52.234Z,80
2016-12-17T09:24:52.220Z,80
2016-12-17T09:25:52.205Z,80
2016-12-17T09:26:52.193Z,80
2016-12-17T09:27:52.181Z,80
2016-12-17T09:28:52.487Z,80
2016-12-17T09:29:52.154Z,80
2016-12-17T09:30:52.142Z,80
2016-12-17T09:31:52.133Z,80
2016-12-17T09:32:52.117Z,80
2016-12-17T09:33:52.105Z,80
2016-12-17T09:34:52.088Z,80
2016-12-17T09:35:52.070Z,80
2016-12-17T09:36:52.069Z,80
2016-12-17T09:37:52.045Z,75
2016-12-17T09:38:52.342Z,80
2016-12-17T09:39:52.022Z,75
2016-12-17T09:40:52.010Z,75
2016-12-17T09:41:51.992Z,80
2016-12-17T09:42:51.980Z,80
2016-12-17T09:43:51.964Z,85
2016-12-17T09:44:51.953Z,85
2016-12-17T09:45:51.942Z,80
2016-12-17T09:46:51.930Z,80
2016-12-17T09:47:51.935Z,85
2016-12-17T09:48:51.900Z,80
2016-12-17T09:49:51.886Z,80
2016-12-17T09:50:51.873Z,85
2016-12-17T09:51:51.863Z,90
2016-12-17T09:52:52.150Z,90
2016-12-17T09:53:51.832Z,95
2016-12-17T09:54:51.824Z,95
2016-12-17T09:55:51.848Z,95
2016-12-17T09:56:51.804Z,95
2016-12-17T09:57:51.789Z,95
2016-12-17T09:58:51.766Z,95
2016-12-17T09:59:51.759Z,90
2016-12-17T10:00:51.742Z,90
2016-12-17T10:01:51.735Z,85
2016-12-17T10:02:52.019Z,85
2016-12-17T10:03:51.705Z,90
2016-12-17T10:04:51.687Z,95
2016-12-17T10:05:51.987Z,95
2016-12-17T10:06:52.002Z,90
2016-12-17T10:07:51.655Z,85
2016-12-17T10:08:51.642Z,90
2016-12-17T10:09:51.661Z,85
2016-12-17T10:10:51.614Z,85
2016-12-17T10:11:51.603Z,80
2016-12-17T10:12:51.590Z,80
2016-12-17T10:13:51.579Z,85
2016-12-17T10:14:51.560Z,85
2016-12-17T10:15:51.553Z,85
2016-12-17T10:16:51.539Z,80
2016-12-17T10:17:51.528Z,85
2016-12-17T10:18:51.509Z,85
2016-12-17T10:19:51.495Z,80
2016-12-17T10:20:51.484Z,80
2016-12-17T10:21:51.474Z,80
2016-12-17T10:22:51.458Z,80
2016-12-17T10:23:51.444Z,80
2016-12-17T10:24:51.429Z,80
2016-12-17T10:25:51.719Z,80
2016-12-17T10:26:51.409Z,80
2016-12-17T10:27:51.693Z,80
2016-12-17T10:28:51.678Z,80
2016-12-17T10:29:51.365Z,80
2016-12-17T10:30:51.662Z,80
2016-12-17T10:31:51.342Z,80
2016-12-17T10:32:51.329Z,75
2016-12-17T10:33:51.318Z,75
2016-12-17T10:34:51.297Z,80
2016-12-17T10:35:51.285Z,80
2016-12-17T10:36:51.275Z,75
2016-12-17T10:37:51.263Z,75
2016-12-17T10:38:51.245Z,70
2016-12-17T10:39:51.233Z,70
2016-12-17T10:40:51.220Z,70
2016-12-17T10:41:51.208Z,75
2016-12-17T10:42:51.194Z,80
2016-12-17T10:43:51.182Z,75
2016-12-17T10:44:51.170Z,75
2016-12-17T10:45:51.159Z,75
2016-12-17T10:46:51.168Z,75
2016-12-17T10:47:51.127Z,75
2016-12-17T10:48:51.120Z,75
2016-12-17T10:49:51.103Z,75
2016-12-17T10:50:51.089Z,75
2016-12-17T10:51:51.075Z,75
2016-12-17T10:52:51.064Z,75
2016-12-17T10:53:51.355Z,75
2016-12-17T10:54:51.036Z,75
2016-12-17T10:55:51.039Z,75
2016-12-17T10:56:51.014Z,75
2016-12-17T10:57:50.998Z,75
2016-12-17T10:58:50.989Z,75
2016-12-17T10:59:50.969Z,75
2016-12-17T11:00:50.957Z,75
2016-12-17T11:01:50.946Z,75
2016-12-17T11:02:50.932Z,75
2016-12-17T11:03:50.921Z,75
2016-12-17T11:04:50.906Z,75
2016-12-17T11:05:50.908Z,75
2016-12-17T11:06:50.881Z,75
2016-12-17T11:07:50.872Z,75
2016-12-17T11:08:50.861Z,75
2016-12-17T11:09:50.852Z,75
2016-12-17T11:10:50.833Z,75
2016-12-17T11:11:50.814Z,75
2016-12-17T11:12:50.804Z,75
2016-12-17T11:13:50.787Z,75
2016-12-17T11:14:50.777Z,75
2016-12-17T11:15:50.765Z,75
2016-12-17T11:16:50.749Z,75
2016-12-17T11:17:50.736Z,80
2016-12-17T11:18:50.723Z,80
2016-12-17T11:19:50.714Z,80
2016-12-17T11:20:50.697Z,80
2016-12-17T11:21:50.692Z,80
2016-12-17T11:22:50.700Z,85
2016-12-17T11:23:50.662Z,95
2016-12-17T11:24:50.640Z,95
2016-12-17T11:25:50.630Z,85
2016-12-17T11:26:50.620Z,80
2016-12-17T11:27:50.602Z,75
2016-12-17T11:28:50.589Z,75
2016-12-17T11:29:50.580Z,80
2016-12-17T11:30:50.566Z,80
2016-12-17T11:31:50.548Z,80
2016-12-17T11:32:50.564Z,80
2016-12-17T11:33:50.523Z,75
2016-12-17T11:34:50.510Z,75
2016-12-17T11:35:50.495Z,75
2016-12-17T11:36:50.488Z,75
2016-12-17T11:37:50.471Z,75
2016-12-17T11:38:50.467Z,75
2016-12-17T11:39:50.467Z,70
2016-12-17T11:40:50.427Z,75
2016-12-17T11:41:50.417Z,70
2016-12-17T11:42:50.408Z,70
2016-12-17T11:43:50.698Z,70
2016-12-17T11:44:50.377Z,65
2016-12-17T11:45:50.363Z,55
2016-12-17T11:46:50.356Z,50
2016-12-17T11:47:50.346Z,50
2016-12-17T11:48:50.327Z,50
2016-12-17T11:49:50.314Z,60
2016-12-17T11:50:50.301Z,70
2016-12-17T11:51:50.288Z,70
2016-12-17T11:52:50.271Z,70
2016-12-17T11:53:50.259Z,70
2016-12-17T11:54:50.247Z,70
2016-12-17T11:55:50.236Z,70
2016-12-17T11:56:50.219Z,70
2016-12-17T11:57:50.206Z,70
2016-12-17T11:58:50.196Z,70
2016-12-17T11:59:50.182Z,75
2016-12-17T12:00:50.169Z,60
2016-12-17T12:01:50.156Z,50
2016-12-17T12:02:50.146Z,60
2016-12-17T12:03:50.127Z,55
2016-12-17T12:04:50.115Z,50
2016-12-17T12:05:50.128Z,45
2016-12-17T12:06:50.394Z,45
2016-12-17T12:07:50.078Z,45
2016-12-17T12:08:50.064Z,45
2016-12-17T12:09:50.051Z,50
2016-12-17T12:10:50.037Z,50
2016-12-17T12:11:50.028Z,45
2016-12-17T12:12:50.010Z,45
2016-12-17T12:13:49.998Z,40
2016-12-17T12:14:49.985Z,45
2016-12-17T12:15:49.969Z,55
2016-12-17T12:16:49.962Z,60
2016-12-17T12:17:49.972Z,65
2016-12-17T12:18:49.935Z,70
2016-12-17T12:19:49.918Z,65
2016-12-17T12:20:49.904Z,70
2016-12-17T12:21:49.894Z,70
2016-12-17T12:22:50.184Z,75
2016-12-17T12:23:49.865Z,75
2016-12-17T12:24:49.853Z,80
2016-12-17T12:25:50.140Z,80
2016-12-17T12:26:49.830Z,85
2016-12-17T12:27:49.818Z,85
2016-12-17T12:28:49.799Z,85
2016-12-17T12:29:49.788Z,80
2016-12-17T12:30:49.774Z,75
2016-12-17T12:31:49.762Z,80
2016-12-17T12:32:49.750Z,80
2016-12-17T12:33:49.736Z,80
2016-12-17T12:34:49.752Z,80
2016-12-17T12:35:49.707Z,80
2016-12-17T12:36:49.696Z,85
2016-12-17T12:37:49.678Z,85
2016-12-17T12:38:49.664Z,85
2016-12-17T12:39:49.657Z,80
2016-12-17T12:40:49.640Z,75
2016-12-17T12:41:49.631Z,75
2016-12-17T12:42:49.659Z,75
2016-12-17T12:43:49.608Z,75
2016-12-17T12:44:49.590Z,75
2016-12-17T12:45:49.892Z,75
2016-12-17T12:46:49.562Z,75
2016-12-17T12:47:49.553Z,75
2016-12-17T12:48:49.535Z,75
2016-12-17T12:49:49.556Z,75
2016-12-17T12:50:49.522Z,75
2016-12-17T12:51:49.816Z,75
2016-12-17T12:52:49.490Z,75
2016-12-17T12:53:49.478Z,75
2016-12-17T12:54:49.481Z,75
2016-12-17T12:55:49.456Z,70
2016-12-17T12:56:49.434Z,70
2016-12-17T12:57:49.424Z,65
2016-12-17T12:58:49.716Z,65
2016-12-17T12:59:49.390Z,65
2016-12-17T13:00:49.415Z,65
2016-12-17T13:01:49.371Z,65
2016-12-17T13:02:49.359Z,65
2016-12-17T13:03:49.344Z,60
2016-12-17T13:04:49.328Z,60
2016-12-17T13:05:49.623Z,65
2016-12-17T13:06:49.304Z,65
2016-12-17T13:07:49.594Z,65
2016-12-17T13:08:49.278Z,65
2016-12-17T13:09:49.261Z,65
2016-12-17T13:10:49.257Z,65
2016-12-17T13:11:49.243Z,65
2016-12-17T13:12:49.226Z,60
2016-12-17T13:13:49.215Z,60
2016-12-17T13:14:49.198Z,55
2016-12-17T13:15:49.204Z,55
2016-12-17T13:16:49.173Z,55
2016-12-17T13:17:49.169Z,55
2016-12-17T13:18:49.147Z,55
2016-12-17T13:19:49.142Z,55
2016-12-17T13:20:49.127Z,55
2016-12-17T13:21:49.105Z,60
2016-12-17T13:22:49.099Z,60
2016-12-17T13:23:49.083Z,55
2016-12-17T13:24:49.077Z,50
2016-12-17T13:25:49.093Z,50
2016-12-17T13:26:49.045Z,50
2016-12-17T13:27:49.029Z,50
2016-12-17T13:28:49.018Z,45
2016-12-17T13:29:49.010Z,45
2016-12-17T13:30:48.994Z,45
2016-12-17T13:31:48.988Z,50
2016-12-17T13:32:48.966Z,50
2016-12-17T13:33:48.954Z,45
2016-12-17T13:34:48.942Z,40
2016-12-17T13:35:49.238Z,35
2016-12-17T13:36:48.915Z,35
2016-12-17T13:37:48.900Z,35
2016-12-17T13:38:48.892Z,40
2016-12-17T13:39:48.878Z,40
2016-12-17T13:40:49.191Z,40
2016-12-17T13:41:49.165Z,40
2016-12-17T13:42:48.833Z,40
2016-12-17T13:43:48.839Z,40
2016-12-17T13:44:48.807Z,40
2016-12-17T13:45:48.799Z,35
2016-12-17T13:46:48.778Z,35
2016-12-17T13:47:48.768Z,35
2016-12-17T13:48:48.757Z,35
2016-12-17T13:49:48.744Z,35
2016-12-17T13:50:48.727Z,35
2016-12-17T13:51:48.719Z,35
2016-12-17T13:52:48.704Z,35
2016-12-17T13:53:48.685Z,35
2016-12-17T13:54:48.675Z,40
2016-12-17T13:55:48.664Z,35
2016-12-17T13:56:48.650Z,30
2016-12-17T13:57:48.634Z,30
2016-12-17T13:58:48.929Z,30
2016-12-17T13:59:48.607Z,25
2016-12-17T14:00:48.598Z,25
2016-12-17T14:01:48.584Z,25
2016-12-17T14:02:48.564Z,25
2016-12-17T14:03:48.556Z,25
2016-12-17T14:04:48.542Z,25
2016-12-17T14:05:48.529Z,25
2016-12-17T14:06:48.815Z,25
2016-12-17T14:07:48.505Z,25
2016-12-17T14:08:48.820Z,25
2016-12-17T14:09:48.475Z,20
2016-12-17T14:10:48.458Z,20
2016-12-17T14:11:48.452Z,20
2016-12-17T14:12:48.736Z,15
2016-12-17T14:13:48.420Z,15
2016-12-17T14:14:48.407Z,15
2016-12-17T14:15:48.390Z,15
2016-12-17T14:16:48.375Z,15
2016-12-17T14:17:48.367Z,15
2016-12-17T14:18:48.368Z,15
2016-12-17T14:19:48.343Z,15
2016-12-17T14:20:48.325Z,10
2016-12-17T14:21:48.311Z,10
2016-12-17T14:22:48.297Z,10
2016-12-17T14:23:48.589Z,10
2016-12-17T14:24:48.270Z,10
2016-12-17T14:25:48.259Z,10
2016-12-17T14:26:48.247Z,10
2016-12-17T14:27:48.232Z,10
2016-12-17T14:28:48.216Z,10
2016-12-17T14:29:48.201Z,10
2016-12-17T14:30:48.195Z,10